Kenseh, Arkansas
Current Conditions -  °F | °C
As of 9:56 AM on Tuesday 21 Oct 2014 (Local Time) from KSRC Reporting Station
Clear Clear  
Wind Chill: 66°   Ceiling: Unl
Heat Index: 66°   Visibility: 10mi
Dew Point: 52°   Wind: 0mph
Humidity: 60%   Direction: NA
Pressure: 30.14"   Gusts: NA
Location:  35.2119°N, 91.6651°W
Report Text: KSRC 211456Z AUTO 00000KT 10SM CLR 19/11 A3014 RMK AO2 SLP211 T01890111 51018 TSNO
Loading
Personal Weather Stations






























Interactive Weather Map
Tropical Storm Tracking
New forecast layout! Learn more

10-Day Weather Forecast

Advertisements
Track Severe Weather on mobile